createdAt,value
2018-02-25T00:00:44.709Z,33.97
2018-02-25T00:03:15.609Z,32.08
2018-02-25T00:05:45.603Z,34.47
2018-02-25T00:08:14.529Z,34.42
2018-02-25T00:10:45.445Z,34.22
2018-02-25T00:13:14.566Z,37.72
2018-02-25T00:15:43.750Z,33.33
2018-02-25T00:18:13.780Z,32.72
2018-02-25T00:20:43.770Z,27.35
2018-02-25T00:23:14.589Z,34.30
2018-02-25T00:25:43.735Z,24.30
2018-02-25T00:28:14.241Z,26.80
2018-02-25T00:30:44.846Z,25.10
2018-02-25T00:33:14.962Z,30.25
2018-02-25T00:35:44.247Z,29.70
2018-02-25T00:38:13.598Z,36.10
2018-02-25T00:40:44.482Z,25.75
2018-02-25T00:43:14.377Z,29.77
2018-02-25T00:45:45.024Z,28.15
2018-02-25T00:48:14.603Z,32.67
2018-02-25T00:50:44.307Z,24.05
2018-02-25T00:53:14.330Z,32.42
2018-02-25T00:55:43.711Z,27.92
2018-02-25T00:58:12.751Z,35.88
2018-02-25T01:00:41.692Z,27.80
2018-02-25T01:03:10.664Z,28.65
2018-02-25T01:05:39.544Z,31.55
2018-02-25T01:08:08.505Z,26.60
2018-02-25T01:10:37.452Z,30.83
2018-02-25T01:13:06.333Z,30.52
2018-02-25T01:15:35.215Z,35.10
2018-02-25T01:18:04.083Z,33.55
2018-02-25T01:20:33.145Z,28.45
2018-02-25T01:23:01.975Z,30.42
2018-02-25T01:25:30.890Z,25.98
2018-02-25T01:28:01.613Z,36.28
2018-02-25T01:30:30.475Z,27.25
2018-02-25T01:32:59.300Z,28.92
2018-02-25T01:35:28.187Z,29.73
2018-02-25T01:37:57.112Z,31.65
2018-02-25T01:40:25.982Z,29.25
2018-02-25T01:42:54.926Z,26.23
2018-02-25T01:45:23.873Z,30.27
2018-02-25T01:47:52.713Z,24.85
2018-02-25T01:50:25.090Z,32.95
2018-02-25T01:52:54.361Z,32.70
2018-02-25T01:55:23.560Z,32.60
2018-02-25T01:57:56.134Z,27.77
2018-02-25T02:00:25.344Z,24.30
2018-02-25T02:02:55.773Z,26.42
2018-02-25T02:05:31.294Z,32.17
2018-02-25T02:08:00.305Z,25.15
2018-02-25T02:10:29.522Z,27.30
2018-02-25T02:13:00.346Z,23.02
2018-02-25T02:15:29.195Z,30.20
2018-02-25T02:17:58.084Z,31.70
2018-02-25T02:23:47.231Z,28.38
2018-02-25T02:26:17.970Z,22.25
2018-02-25T02:28:48.506Z,27.70
2018-02-25T02:31:18.511Z,19.83
2018-02-25T02:33:48.510Z,23.65
2018-02-25T02:36:18.546Z,23.35
2018-02-25T02:38:48.610Z,30.37
2018-02-25T02:41:19.244Z,30.55
2018-02-25T02:43:50.170Z,29.52
2018-02-25T02:46:20.294Z,28.08
2018-02-25T02:48:49.678Z,28.27
2018-02-25T02:51:18.781Z,28.58
2018-02-25T02:53:48.049Z,29.77
2018-02-25T02:56:17.344Z,35.22
2018-02-25T02:58:47.120Z,33.92
2018-02-25T03:01:16.708Z,30.08
2018-02-25T03:03:49.254Z,22.20
2018-02-25T03:06:18.485Z,30.95
2018-02-25T03:08:48.164Z,27.40
2018-02-25T03:11:17.785Z,27.25
2018-02-25T03:13:46.908Z,35.90
2018-02-25T03:16:19.038Z,25.10
2018-02-25T03:18:49.050Z,20.95
2018-02-25T03:21:19.854Z,20.62
2018-02-25T03:23:49.331Z,25.50
2018-02-25T03:26:18.535Z,35.28
2018-02-25T03:28:47.729Z,29.42
2018-02-25T03:31:17.115Z,28.62
2018-02-25T03:33:46.321Z,30.55
2018-02-25T03:36:15.519Z,24.40
2018-02-25T03:38:44.586Z,22.42
2018-02-25T03:41:14.037Z,20.90
2018-02-25T03:43:44.864Z,22.15
2018-02-25T03:46:13.927Z,25.70
2018-02-25T03:48:46.584Z,25.52
2018-02-25T03:51:15.706Z,23.10
2018-02-25T03:53:44.869Z,25.67
2018-02-25T03:56:14.714Z,23.10
2018-02-25T03:58:44.045Z,25.88
2018-02-25T04:01:14.055Z,24.30
2018-02-25T04:03:46.714Z,20.52
2018-02-25T04:06:18.293Z,20.50
2018-02-25T04:08:48.403Z,29.12
2018-02-25T04:11:17.583Z,23.17
2018-02-25T04:13:53.949Z,28.58
2018-02-25T04:16:23.961Z,25.17
2018-02-25T04:18:53.165Z,26.25
2018-02-25T04:21:22.258Z,23.50
2018-02-25T04:23:51.820Z,25.45
2018-02-25T04:26:20.655Z,23.42
2018-02-25T04:28:51.130Z,32.75
2018-02-25T04:31:19.989Z,25.40
2018-02-25T04:33:48.823Z,22.73
2018-02-25T04:36:19.366Z,28.77
2018-02-25T04:38:48.271Z,22.62
2018-02-25T04:41:19.223Z,28.08
2018-02-25T04:43:48.090Z,22.27
2018-02-25T04:46:17.019Z,29.40
2018-02-25T04:48:45.898Z,20.77
2018-02-25T04:51:15.749Z,27.10
2018-02-25T04:53:44.667Z,23.92
2018-02-25T04:56:13.624Z,21.98
2018-02-25T04:58:42.513Z,24.17
2018-02-25T05:01:11.461Z,23.33
2018-02-25T05:03:40.301Z,26.85
2018-02-25T05:06:09.265Z,26.05
2018-02-25T05:08:38.205Z,23.38
2018-02-25T05:11:07.032Z,22.75
2018-02-25T05:13:36.818Z,26.95
2018-02-25T05:16:05.834Z,27.50
2018-02-25T05:18:34.646Z,31.17
2018-02-25T05:21:03.634Z,29.30
2018-02-25T05:23:32.809Z,22.80
2018-02-25T05:26:03.938Z,30.15
2018-02-25T05:28:33.830Z,30.45
2018-02-25T05:31:03.970Z,23.55
2018-02-25T05:33:33.951Z,30.05
2018-02-25T05:36:03.335Z,31.15
2018-02-25T05:38:32.459Z,28.48
2018-02-25T05:41:01.625Z,35.15
2018-02-25T05:43:33.232Z,28.33
2018-02-25T05:46:02.501Z,26.02
2018-02-25T05:48:32.318Z,29.90
2018-02-25T05:51:01.591Z,30.50
2018-02-25T05:53:30.893Z,27.15
2018-02-25T05:55:59.735Z,24.95
2018-02-25T05:58:29.723Z,31.87
2018-02-25T06:00:58.571Z,26.85
2018-02-25T06:03:27.418Z,29.15
2018-02-25T06:05:59.930Z,26.45
2018-02-25T06:08:28.790Z,19.12
2018-02-25T06:10:57.659Z,26.77
2018-02-25T06:13:26.528Z,29.83
2018-02-25T06:15:55.394Z,26.00
2018-02-25T06:18:24.283Z,24.42
2018-02-25T06:20:54.097Z,20.50
2018-02-25T06:23:22.983Z,26.15
2018-02-25T06:25:51.993Z,29.33
2018-02-25T06:28:26.143Z,29.87
2018-02-25T06:30:56.189Z,27.58
2018-02-25T06:33:26.093Z,33.10
2018-02-25T06:35:56.129Z,25.08
2018-02-25T06:38:25.208Z,28.45
2018-02-25T06:40:54.483Z,30.95
2018-02-25T06:43:25.458Z,27.87
2018-02-25T06:45:55.380Z,27.55
2018-02-25T06:48:24.538Z,22.35
2018-02-25T06:50:54.074Z,27.52
2018-02-25T06:53:23.979Z,28.05
2018-02-25T06:55:53.817Z,22.33
2018-02-25T06:58:25.074Z,26.58
2018-02-25T07:00:57.116Z,30.45
2018-02-25T07:03:26.222Z,19.92
2018-02-25T07:05:56.200Z,33.50
2018-02-25T07:08:27.294Z,21.10
2018-02-25T07:10:57.038Z,25.35
2018-02-25T07:13:26.237Z,21.95
2018-02-25T07:15:56.252Z,21.33
2018-02-25T07:18:25.133Z,22.25
2018-02-25T07:20:54.013Z,20.58
2018-02-25T07:23:23.715Z,25.88
2018-02-25T07:25:52.539Z,23.92
2018-02-25T07:28:21.418Z,31.17
2018-02-25T07:30:51.118Z,21.85
2018-02-25T07:33:19.973Z,26.67
2018-02-25T07:35:48.798Z,28.30
2018-02-25T07:38:18.570Z,34.67
2018-02-25T07:40:47.533Z,26.70
2018-02-25T07:43:16.396Z,28.08
2018-02-25T07:45:45.258Z,28.85
2018-02-25T07:48:14.120Z,26.95
2018-02-25T07:50:42.983Z,33.30
2018-02-25T07:53:11.837Z,26.35
2018-02-25T07:55:40.719Z,30.67
2018-02-25T07:58:09.507Z,28.17
2018-02-25T08:00:39.332Z,30.20
2018-02-25T08:03:08.232Z,29.73
2018-02-25T08:05:37.169Z,41.20
2018-02-25T08:08:06.044Z,40.28
2018-02-25T08:10:34.892Z,49.78
2018-02-25T08:13:03.742Z,37.25
2018-02-25T08:15:33.558Z,52.62
2018-02-25T08:18:02.467Z,31.25
2018-02-25T08:20:31.344Z,34.72
2018-02-25T08:23:00.273Z,45.55
2018-02-25T08:25:29.216Z,33.50
2018-02-25T08:27:58.112Z,32.17
2018-02-25T08:30:28.662Z,44.05
2018-02-25T08:32:57.538Z,31.17
2018-02-25T08:35:26.484Z,31.80
2018-02-25T08:37:56.302Z,29.08
2018-02-25T08:40:25.201Z,27.10
2018-02-25T08:42:54.243Z,30.88
2018-02-25T08:45:23.112Z,29.50
2018-02-25T08:47:51.948Z,36.05
2018-02-25T08:50:20.812Z,31.73
2018-02-25T08:58:50.958Z,40.78
2018-02-25T09:01:19.823Z,35.25
2018-02-25T09:03:48.779Z,33.03
2018-02-25T09:06:21.463Z,33.58
2018-02-25T09:08:50.312Z,29.25
2018-02-25T09:11:19.274Z,29.12
2018-02-25T09:13:51.829Z,36.28
2018-02-25T09:16:20.727Z,33.53
2018-02-25T09:18:49.606Z,35.30
2018-02-25T09:21:19.418Z,34.65
2018-02-25T09:23:48.331Z,31.12
2018-02-25T09:26:17.366Z,29.15
2018-02-25T09:28:48.677Z,34.65
2018-02-25T09:31:17.769Z,31.75
2018-02-25T09:33:47.617Z,36.22
2018-02-25T09:36:18.647Z,32.15
2018-02-25T09:38:49.567Z,31.17
2018-02-25T09:41:18.604Z,41.70
2018-02-25T09:43:48.719Z,27.48
2018-02-25T09:46:17.830Z,28.75
2018-02-25T09:48:47.475Z,25.83
2018-02-25T09:51:16.922Z,38.72
2018-02-25T09:53:46.093Z,36.50
2018-02-25T09:56:15.323Z,38.15
2018-02-25T09:58:46.324Z,43.80
2018-02-25T10:01:15.312Z,34.25
2018-02-25T10:03:45.156Z,42.58
2018-02-25T10:06:16.512Z,34.83
2018-02-25T10:08:47.316Z,32.60
2018-02-25T10:11:16.403Z,36.70
2018-02-25T10:13:48.117Z,33.60
2018-02-25T10:16:19.086Z,33.03
2018-02-25T10:18:50.057Z,36.40
2018-02-25T10:21:20.624Z,31.17
2018-02-25T10:23:51.549Z,28.30
2018-02-25T10:26:20.698Z,30.60
2018-02-25T10:28:49.663Z,32.67
2018-02-25T10:31:20.172Z,37.00
2018-02-25T10:33:49.229Z,30.48
2018-02-25T10:36:18.144Z,33.22
2018-02-25T10:38:47.925Z,30.75
2018-02-25T10:41:17.718Z,28.62
2018-02-25T10:43:46.967Z,28.17
2018-02-25T10:46:17.225Z,27.75
2018-02-25T12:46:59.720Z,33.97
2018-02-25T12:49:28.957Z,29.35
2018-02-25T12:51:58.209Z,27.05
2018-02-25T12:54:27.259Z,22.65
2018-02-25T12:56:56.318Z,29.20
2018-02-25T12:59:25.497Z,34.75
2018-02-25T13:01:54.829Z,34.60
2018-02-25T13:04:23.773Z,37.92
2018-02-25T13:06:52.903Z,33.75
2018-02-25T13:09:25.563Z,42.38
2018-02-25T13:11:55.752Z,36.38
2018-02-25T13:14:24.818Z,29.83
2018-02-25T13:16:54.571Z,34.92
2018-02-25T13:19:24.779Z,32.60
2018-02-25T13:21:53.946Z,32.55
2018-02-25T13:24:25.119Z,40.92
2018-02-25T13:26:54.372Z,43.97
2018-02-25T13:29:23.399Z,44.53
2018-02-25T13:31:53.250Z,41.45
2018-02-25T13:34:22.421Z,42.72
2018-02-25T13:36:53.266Z,32.90
2018-02-25T13:39:24.546Z,35.08
2018-02-25T13:41:53.552Z,35.47
2018-02-25T13:44:27.092Z,38.33
2018-02-25T13:46:56.102Z,31.15
2018-02-25T13:49:25.450Z,33.10
2018-02-25T13:51:59.227Z,42.05
2018-02-25T13:54:28.240Z,37.78
2018-02-25T13:56:57.677Z,32.90
2018-02-25T13:59:28.623Z,39.70
2018-02-25T14:01:57.899Z,31.33
2018-02-25T14:04:27.108Z,32.65
2018-02-25T14:06:56.375Z,37.40
2018-02-25T14:09:28.378Z,29.73
2018-02-25T14:11:59.286Z,38.03
2018-02-25T14:14:29.268Z,27.30
2018-02-25T14:16:58.468Z,26.00
2018-02-25T14:19:28.576Z,33.13
2018-02-25T14:21:58.813Z,30.65
2018-02-25T14:24:28.778Z,35.00
2018-02-25T14:26:58.954Z,34.47
2018-02-25T14:29:28.435Z,35.10
2018-02-25T14:31:57.710Z,29.45
2018-02-25T14:34:27.053Z,34.33
2018-02-25T14:36:56.446Z,35.20
2018-02-25T14:39:26.584Z,39.42
2018-02-25T14:41:57.023Z,39.70
2018-02-25T14:44:26.969Z,30.98
2018-02-25T14:46:57.156Z,31.25
2018-02-25T14:49:28.413Z,34.40
2018-02-25T14:51:58.493Z,30.85
2018-02-25T14:54:27.755Z,33.92
2018-02-25T14:56:57.124Z,31.40
2018-02-25T14:59:28.005Z,28.75
2018-02-25T15:01:57.227Z,35.88
2018-02-25T15:04:27.461Z,25.80
2018-02-25T15:06:56.699Z,31.83
2018-02-25T15:09:25.937Z,37.95
2018-02-25T15:12:00.013Z,40.33
2018-02-25T15:14:29.310Z,33.78
2018-02-25T15:16:59.385Z,41.10
2018-02-25T15:19:28.685Z,56.28
2018-02-25T15:21:58.911Z,44.47
2018-02-25T15:24:28.761Z,44.63
2018-02-25T15:26:59.905Z,31.42
2018-02-25T15:29:29.024Z,33.10
2018-02-25T15:31:58.312Z,36.17
2018-02-25T15:34:30.933Z,37.58
2018-02-25T15:37:02.029Z,43.75
2018-02-25T15:39:33.524Z,40.75
2018-02-25T15:42:02.677Z,42.75
2018-02-25T15:44:38.569Z,43.50
2018-02-25T15:47:08.877Z,44.22
2018-02-25T15:49:38.789Z,58.00
2018-02-25T15:52:08.264Z,57.30
2018-02-25T15:54:37.464Z,50.33
2018-02-25T15:57:07.317Z,38.50
2018-02-25T15:59:36.369Z,43.10
2018-02-25T16:02:05.312Z,44.15
2018-02-25T16:04:34.170Z,40.70
2018-02-25T16:07:03.089Z,46.25
2018-02-25T16:09:31.985Z,37.45
2018-02-25T16:12:02.266Z,42.88
2018-02-25T16:14:33.058Z,49.53
2018-02-25T16:17:02.404Z,46.85
2018-02-25T16:19:31.924Z,40.78
2018-02-25T16:22:01.763Z,38.80
2018-02-25T16:24:30.926Z,39.10
2018-02-25T16:26:59.907Z,33.60
2018-02-25T16:29:29.897Z,32.33
2018-02-25T16:31:58.965Z,46.67
2018-02-25T16:34:27.921Z,35.90
2018-02-25T16:36:57.771Z,37.13
2018-02-25T16:39:26.718Z,32.08
2018-02-25T16:41:55.743Z,30.00
2018-02-25T16:44:26.474Z,41.47
2018-02-25T16:46:55.485Z,65.65
2018-02-25T16:49:24.496Z,34.45
2018-02-25T16:51:55.164Z,39.63
2018-02-25T16:54:24.188Z,35.17
2018-02-25T16:56:53.193Z,38.45
2018-02-25T16:59:23.750Z,39.95
2018-02-25T17:01:52.689Z,44.30
2018-02-25T17:04:21.731Z,44.05
2018-02-25T17:06:50.740Z,43.67
2018-02-25T17:09:19.802Z,38.42
2018-02-25T17:11:48.734Z,52.47
2018-02-25T17:14:21.195Z,38.70
2018-02-25T17:16:50.147Z,41.95
2018-02-25T17:19:19.708Z,27.75
2018-02-25T17:21:48.772Z,27.85
2018-02-25T17:24:17.756Z,34.92
2018-02-25T17:26:46.961Z,36.78
2018-02-25T17:29:16.987Z,36.38
2018-02-25T17:31:46.004Z,44.47
2018-02-25T17:34:15.087Z,38.70
2018-02-25T17:36:44.192Z,40.38
2018-02-25T17:39:13.310Z,32.88
2018-02-25T17:41:42.464Z,26.83
2018-02-25T17:44:13.547Z,28.33
2018-02-25T17:46:42.528Z,34.03
2018-02-25T17:49:12.110Z,35.72
2018-02-25T17:51:42.423Z,29.23
2018-02-25T17:54:12.085Z,28.48
2018-02-25T17:56:41.874Z,27.15
2018-02-25T17:59:11.775Z,28.92
2018-02-25T18:01:41.044Z,36.10
2018-02-25T18:04:10.276Z,26.27
2018-02-25T18:06:39.229Z,20.90
2018-02-25T18:09:08.230Z,30.30
2018-02-25T18:11:37.219Z,24.95
2018-02-25T18:14:07.987Z,32.03
2018-02-25T18:16:36.910Z,22.42
2018-02-25T18:19:05.943Z,28.35
2018-02-25T18:21:35.038Z,22.70
2018-02-25T18:24:04.017Z,20.98
2018-02-25T18:26:33.013Z,20.83
2018-02-25T18:29:06.172Z,27.45
2018-02-25T18:31:35.067Z,29.40
2018-02-25T18:34:04.024Z,30.58
2018-02-25T18:36:33.895Z,19.02
2018-02-25T18:39:02.775Z,21.08
2018-02-25T18:41:31.687Z,28.45
2018-02-25T18:44:03.059Z,58.87
2018-02-25T18:46:32.066Z,28.80
2018-02-25T18:49:01.068Z,24.10
2018-02-25T18:51:30.968Z,23.67
2018-02-25T18:53:59.999Z,23.70
2018-02-25T18:56:28.880Z,26.33
2018-02-25T18:58:57.884Z,20.08
2018-02-25T19:01:26.826Z,20.05
2018-02-25T19:03:55.865Z,23.27
2018-02-25T19:06:24.762Z,20.75
2018-02-25T19:08:53.712Z,19.30
2018-02-25T19:11:22.645Z,24.08
2018-02-25T19:13:54.004Z,14.20
2018-02-25T19:16:22.935Z,19.55
2018-02-25T19:18:51.953Z,19.33
2018-02-25T19:21:20.849Z,17.50
2018-02-25T19:23:49.768Z,21.05
2018-02-25T19:26:18.682Z,17.17
2018-02-25T19:28:49.416Z,17.17
2018-02-25T19:31:18.298Z,24.87
2018-02-25T19:33:47.282Z,21.15
2018-02-25T19:36:23.313Z,27.42
2018-02-25T19:38:57.797Z,27.25
2018-02-25T19:41:32.380Z,20.90
2018-02-25T19:44:01.744Z,21.75
2018-02-25T19:46:30.767Z,24.80
2018-02-25T19:49:01.487Z,20.52
2018-02-25T19:51:30.450Z,23.75
2018-02-25T19:53:59.315Z,21.75
2018-02-25T19:56:28.490Z,21.80
2018-02-25T19:58:57.575Z,25.00
2018-02-25T20:01:27.365Z,22.23
2018-02-25T20:03:58.606Z,19.92
2018-02-25T20:06:27.640Z,32.75
2018-02-25T20:08:56.693Z,24.05
2018-02-25T20:11:25.673Z,23.87
2018-02-25T20:13:54.633Z,24.75
2018-02-25T20:16:23.825Z,20.30
2018-02-25T20:18:53.975Z,16.60
2018-02-25T20:21:22.879Z,22.65
2018-02-25T20:23:51.944Z,17.27
2018-02-25T20:26:21.912Z,16.92
2018-02-25T20:28:50.805Z,15.38
2018-02-25T20:31:19.835Z,14.35
2018-02-25T20:33:48.899Z,14.75
2018-02-25T20:36:17.904Z,22.45
2018-02-25T20:38:46.812Z,17.50
2018-02-25T20:41:19.978Z,17.05
2018-02-25T20:43:48.867Z,16.23
2018-02-25T20:46:17.767Z,18.77
2018-02-25T20:48:46.932Z,17.20
2018-02-25T20:51:15.845Z,13.43
2018-02-25T20:53:44.787Z,8.15
2018-02-25T20:56:14.622Z,18.40
2018-02-25T20:58:43.802Z,12.60
2018-02-25T21:01:12.687Z,14.43
2018-02-25T21:03:41.869Z,16.83
2018-02-25T21:06:11.930Z,14.52
2018-02-25T21:08:40.868Z,14.48
2018-02-25T21:11:09.922Z,14.05
2018-02-25T21:13:38.851Z,11.82
2018-02-25T21:16:08.028Z,12.90
2018-02-25T21:18:39.562Z,11.98
2018-02-25T21:21:08.451Z,13.38
2018-02-25T21:23:37.391Z,8.18
2018-02-25T21:26:08.868Z,9.95
2018-02-25T21:28:37.922Z,13.00
2018-02-25T21:31:06.954Z,10.98
2018-02-25T21:33:40.685Z,17.02
2018-02-25T21:36:09.689Z,10.93
2018-02-25T21:38:38.571Z,9.65
2018-02-25T21:41:07.698Z,9.45
2018-02-25T21:43:36.574Z,12.15
2018-02-25T21:46:05.641Z,10.95
2018-02-25T21:48:34.745Z,7.82
2018-02-25T21:51:03.799Z,12.90
2018-02-25T21:53:38.712Z,13.20
2018-02-25T21:56:13.296Z,15.50
2018-02-25T21:58:47.811Z,15.25
2018-02-25T22:01:22.422Z,9.57
2018-02-25T22:03:56.808Z,10.82
2018-02-25T22:06:25.775Z,13.90
2018-02-25T22:08:54.733Z,8.88
2018-02-25T22:11:24.787Z,8.88
2018-02-25T22:13:54.049Z,11.43
2018-02-25T22:16:22.358Z,14.38
2018-02-25T22:18:51.561Z,11.73
2018-02-25T22:21:21.519Z,13.90
2018-02-25T22:23:50.925Z,9.82
2018-02-25T22:26:21.619Z,18.23
2018-02-25T22:28:50.750Z,14.32
2018-02-25T22:31:21.156Z,11.85
2018-02-25T22:33:53.628Z,11.02
2018-02-25T22:36:23.029Z,17.52
2018-02-25T22:38:52.216Z,19.67
2018-02-25T22:41:21.704Z,16.05
2018-02-25T22:43:50.842Z,10.35
2018-02-25T22:46:20.125Z,9.82
2018-02-25T22:48:51.486Z,14.90
2018-02-25T22:51:20.565Z,17.48
2018-02-25T22:53:49.790Z,10.35
2018-02-25T22:56:19.265Z,13.02
2018-02-25T22:58:48.361Z,92.80
2018-02-25T23:01:17.387Z,10.27
2018-02-25T23:03:48.221Z,8.27
2018-02-25T23:06:18.347Z,9.70
2018-02-25T23:08:47.435Z,9.40
2018-02-25T23:11:17.406Z,13.85
2018-02-25T23:13:47.167Z,8.07
2018-02-25T23:16:16.336Z,11.07
2018-02-25T23:18:45.341Z,13.90
2018-02-25T23:21:14.389Z,9.75
2018-02-25T23:23:43.602Z,7.70
2018-02-25T23:33:04.100Z,11.52
2018-02-25T23:35:33.373Z,13.43
2018-02-25T23:38:02.586Z,13.07
2018-02-25T23:40:33.148Z,12.37
2018-02-25T23:43:02.189Z,9.85
2018-02-25T23:45:32.311Z,11.45
2018-02-25T23:48:02.357Z,9.70
2018-02-25T23:50:31.769Z,13.75
2018-02-25T23:53:01.376Z,11.18
2018-02-25T23:55:33.803Z,13.38
2018-02-25T23:58:03.054Z,16.48
